Terminal Aerodrome Forecast
Issued by NWS

Home | Current Version | Previous Version | Text Only | Print | Product List | Glossary On
Versions: 1 2 3 4 5 6 7 8 9 10 11 12 13
000
FTUS46 KSGX 220520
TAFPSP
TAF
KPSP 220520Z 2206/2306 32011G21KT P6SM SKC
     FM220900 32011KT P6SM FEW200
     FM221200 33007KT P6SM FEW200
     FM221900 32015G25KT P6SM FEW100=

USA.gov is the U.S. government's official web portal to all federal, state and local government web resources and services.